sensor_id;sensor_type;location;lat;lon;timestamp;P1;durP1;ratioP1;P2;durP2;ratioP2
37847;SDS011;23688;33.130;-117.188;2023-06-22T00:02:18;16.17;;;3.63;;
37847;SDS011;23688;33.130;-117.188;2023-06-22T00:04:44;17.10;;;3.95;;
37847;SDS011;23688;33.130;-117.188;2023-06-22T00:07:11;24.73;;;4.95;;
37847;SDS011;23688;33.130;-117.188;2023-06-22T00:09:37;17.42;;;3.85;;
37847;SDS011;23688;33.130;-117.188;2023-06-22T00:12:03;13.80;;;3.83;;
37847;SDS011;23688;33.130;-117.188;2023-06-22T00:14:30;24.13;;;4.18;;
37847;SDS011;23688;33.130;-117.188;2023-06-22T00:16:56;18.63;;;3.72;;
37847;SDS011;23688;33.130;-117.188;2023-06-22T00:19:24;16.75;;;3.63;;
37847;SDS011;23688;33.130;-117.188;2023-06-22T00:21:50;11.98;;;3.65;;
37847;SDS011;23688;33.130;-117.188;2023-06-22T00:24:20;18.08;;;3.92;;
37847;SDS011;23688;33.130;-117.188;2023-06-22T00:26:50;15.80;;;3.95;;
37847;SDS011;23688;33.130;-117.188;2023-06-22T00:29:16;18.58;;;4.43;;
37847;SDS011;23688;33.130;-117.188;2023-06-22T00:31:43;18.13;;;4.60;;
37847;SDS011;23688;33.130;-117.188;2023-06-22T00:34:10;19.08;;;3.78;;
37847;SDS011;23688;33.130;-117.188;2023-06-22T00:36:36;14.10;;;4.00;;
37847;SDS011;23688;33.130;-117.188;2023-06-22T00:39:02;19.95;;;3.90;;
37847;SDS011;23688;33.130;-117.188;2023-06-22T00:41:33;23.90;;;3.80;;
37847;SDS011;23688;33.130;-117.188;2023-06-22T00:44:00;20.27;;;4.72;;
37847;SDS011;23688;33.130;-117.188;2023-06-22T00:46:26;24.83;;;4.22;;
37847;SDS011;23688;33.130;-117.188;2023-06-22T00:48:53;19.48;;;4.30;;
37847;SDS011;23688;33.130;-117.188;2023-06-22T00:51:22;18.70;;;4.35;;
37847;SDS011;23688;33.130;-117.188;2023-06-22T00:53:51;20.17;;;4.43;;
37847;SDS011;23688;33.130;-117.188;2023-06-22T00:56:18;23.67;;;5.25;;
37847;SDS011;23688;33.130;-117.188;2023-06-22T00:58:45;22.08;;;4.15;;
37847;SDS011;23688;33.130;-117.188;2023-06-22T01:01:13;23.70;;;4.43;;
37847;SDS011;23688;33.130;-117.188;2023-06-22T01:03:39;20.48;;;3.63;;
37847;SDS011;23688;33.130;-117.188;2023-06-22T01:06:07;27.05;;;4.60;;
37847;SDS011;23688;33.130;-117.188;2023-06-22T01:08:44;18.35;;;4.32;;
37847;SDS011;23688;33.130;-117.188;2023-06-22T01:11:22;19.25;;;4.03;;
37847;SDS011;23688;33.130;-117.188;2023-06-22T01:14:03;21.13;;;3.97;;
37847;SDS011;23688;33.130;-117.188;2023-06-22T01:19:17;17.45;;;3.60;;
37847;SDS011;23688;33.130;-117.188;2023-06-22T01:22:22;15.40;;;4.25;;
37847;SDS011;23688;33.130;-117.188;2023-06-22T01:30:17;14.15;;;3.60;;
37847;SDS011;23688;33.130;-117.188;2023-06-22T01:32:46;21.48;;;4.22;;
37847;SDS011;23688;33.130;-117.188;2023-06-22T01:35:14;24.60;;;4.88;;
37847;SDS011;23688;33.130;-117.188;2023-06-22T01:37:41;24.50;;;5.10;;
37847;SDS011;23688;33.130;-117.188;2023-06-22T01:40:08;27.13;;;5.15;;
37847;SDS011;23688;33.130;-117.188;2023-06-22T01:42:36;18.52;;;4.80;;
37847;SDS011;23688;33.130;-117.188;2023-06-22T01:45:03;22.20;;;4.22;;
37847;SDS011;23688;33.130;-117.188;2023-06-22T01:47:31;28.73;;;4.80;;
37847;SDS011;23688;33.130;-117.188;2023-06-22T01:49:58;17.17;;;4.05;;
37847;SDS011;23688;33.130;-117.188;2023-06-22T01:52:25;17.63;;;4.55;;
37847;SDS011;23688;33.130;-117.188;2023-06-22T01:54:51;22.08;;;5.38;;
37847;SDS011;23688;33.130;-117.188;2023-06-22T01:57:17;20.60;;;3.97;;
37847;SDS011;23688;33.130;-117.188;2023-06-22T01:59:47;22.90;;;4.80;;
37847;SDS011;23688;33.130;-117.188;2023-06-22T02:02:27;21.08;;;4.72;;
37847;SDS011;23688;33.130;-117.188;2023-06-22T02:05:16;21.42;;;4.80;;
37847;SDS011;23688;33.130;-117.188;2023-06-22T02:08:05;27.35;;;5.18;;
37847;SDS011;23688;33.130;-117.188;2023-06-22T02:10:36;19.95;;;5.38;;
37847;SDS011;23688;33.130;-117.188;2023-06-22T02:13:06;23.30;;;4.63;;
37847;SDS011;23688;33.130;-117.188;2023-06-22T02:15:34;20.13;;;4.60;;
37847;SDS011;23688;33.130;-117.188;2023-06-22T02:18:02;17.13;;;4.03;;
37847;SDS011;23688;33.130;-117.188;2023-06-22T02:20:28;21.08;;;4.85;;
37847;SDS011;23688;33.130;-117.188;2023-06-22T02:22:55;29.65;;;5.50;;
37847;SDS011;23688;33.130;-117.188;2023-06-22T02:25:21;19.60;;;5.07;;
37847;SDS011;23688;33.130;-117.188;2023-06-22T02:27:48;19.65;;;4.10;;
37847;SDS011;23688;33.130;-117.188;2023-06-22T02:30:14;26.13;;;5.30;;
37847;SDS011;23688;33.130;-117.188;2023-06-22T02:32:41;25.73;;;5.50;;
37847;SDS011;23688;33.130;-117.188;2023-06-22T02:35:10;25.25;;;5.22;;
37847;SDS011;23688;33.130;-117.188;2023-06-22T02:37:37;20.98;;;5.05;;
37847;SDS011;23688;33.130;-117.188;2023-06-22T02:40:07;21.80;;;4.72;;
37847;SDS011;23688;33.130;-117.188;2023-06-22T02:42:37;25.33;;;4.47;;
37847;SDS011;23688;33.130;-117.188;2023-06-22T02:45:05;25.25;;;4.32;;
37847;SDS011;23688;33.130;-117.188;2023-06-22T02:47:32;27.73;;;4.60;;
37847;SDS011;23688;33.130;-117.188;2023-06-22T02:49:58;19.55;;;4.82;;
37847;SDS011;23688;33.130;-117.188;2023-06-22T02:52:24;28.55;;;6.00;;
37847;SDS011;23688;33.130;-117.188;2023-06-22T02:54:53;22.02;;;4.45;;
37847;SDS011;23688;33.130;-117.188;2023-06-22T02:57:19;26.38;;;4.82;;
37847;SDS011;23688;33.130;-117.188;2023-06-22T02:59:46;29.13;;;5.47;;
37847;SDS011;23688;33.130;-117.188;2023-06-22T03:02:12;27.65;;;4.55;;
37847;SDS011;23688;33.130;-117.188;2023-06-22T03:04:38;24.55;;;4.15;;
37847;SDS011;23688;33.130;-117.188;2023-06-22T03:07:05;23.95;;;5.00;;
37847;SDS011;23688;33.130;-117.188;2023-06-22T03:09:31;23.35;;;5.07;;
37847;SDS011;23688;33.130;-117.188;2023-06-22T03:11:57;26.80;;;5.55;;
37847;SDS011;23688;33.130;-117.188;2023-06-22T03:14:24;23.58;;;5.75;;
37847;SDS011;23688;33.130;-117.188;2023-06-22T03:16:50;26.77;;;6.45;;
37847;SDS011;23688;33.130;-117.188;2023-06-22T03:19:16;31.60;;;5.97;;
37847;SDS011;23688;33.130;-117.188;2023-06-22T03:21:44;27.07;;;6.30;;
37847;SDS011;23688;33.130;-117.188;2023-06-22T03:24:11;30.02;;;6.28;;
37847;SDS011;23688;33.130;-117.188;2023-06-22T03:26:37;28.83;;;5.47;;
37847;SDS011;23688;33.130;-117.188;2023-06-22T03:29:03;35.97;;;6.60;;
37847;SDS011;23688;33.130;-117.188;2023-06-22T03:31:29;21.38;;;4.82;;
37847;SDS011;23688;33.130;-117.188;2023-06-22T03:33:56;37.58;;;6.30;;
37847;SDS011;23688;33.130;-117.188;2023-06-22T03:36:22;32.10;;;6.60;;
37847;SDS011;23688;33.130;-117.188;2023-06-22T03:38:49;37.92;;;8.05;;
37847;SDS011;23688;33.130;-117.188;2023-06-22T03:41:17;31.52;;;6.45;;
37847;SDS011;23688;33.130;-117.188;2023-06-22T03:43:43;37.95;;;7.13;;
37847;SDS011;23688;33.130;-117.188;2023-06-22T03:46:09;29.63;;;5.90;;
37847;SDS011;23688;33.130;-117.188;2023-06-22T03:48:37;33.72;;;6.63;;
37847;SDS011;23688;33.130;-117.188;2023-06-22T03:51:04;42.75;;;7.82;;
37847;SDS011;23688;33.130;-117.188;2023-06-22T03:53:30;38.75;;;7.32;;
37847;SDS011;23688;33.130;-117.188;2023-06-22T03:55:56;32.60;;;6.43;;
37847;SDS011;23688;33.130;-117.188;2023-06-22T03:58:23;36.28;;;7.95;;
37847;SDS011;23688;33.130;-117.188;2023-06-22T04:00:49;30.65;;;7.35;;
37847;SDS011;23688;33.130;-117.188;2023-06-22T04:03:17;45.28;;;7.13;;
37847;SDS011;23688;33.130;-117.188;2023-06-22T04:05:44;41.00;;;7.75;;
37847;SDS011;23688;33.130;-117.188;2023-06-22T04:08:12;39.22;;;7.47;;
37847;SDS011;23688;33.130;-117.188;2023-06-22T04:10:39;54.95;;;7.85;;
37847;SDS011;23688;33.130;-117.188;2023-06-22T04:13:05;44.45;;;6.97;;
37847;SDS011;23688;33.130;-117.188;2023-06-22T04:15:32;33.97;;;7.25;;
37847;SDS011;23688;33.130;-117.188;2023-06-22T04:17:58;41.80;;;7.28;;
37847;SDS011;23688;33.130;-117.188;2023-06-22T04:20:25;33.38;;;7.05;;
37847;SDS011;23688;33.130;-117.188;2023-06-22T04:22:54;37.42;;;6.32;;
37847;SDS011;23688;33.130;-117.188;2023-06-22T04:25:20;39.75;;;7.28;;
37847;SDS011;23688;33.130;-117.188;2023-06-22T04:27:47;29.00;;;7.32;;
37847;SDS011;23688;33.130;-117.188;2023-06-22T04:30:14;46.38;;;7.53;;
37847;SDS011;23688;33.130;-117.188;2023-06-22T04:32:41;45.47;;;7.95;;
37847;SDS011;23688;33.130;-117.188;2023-06-22T04:35:09;34.00;;;7.25;;
37847;SDS011;23688;33.130;-117.188;2023-06-22T04:37:36;41.63;;;6.90;;
37847;SDS011;23688;33.130;-117.188;2023-06-22T04:40:04;33.60;;;6.53;;
37847;SDS011;23688;33.130;-117.188;2023-06-22T04:42:33;33.33;;;6.78;;
37847;SDS011;23688;33.130;-117.188;2023-06-22T04:45:01;39.63;;;6.93;;
37847;SDS011;23688;33.130;-117.188;2023-06-22T04:47:28;29.17;;;7.72;;
37847;SDS011;23688;33.130;-117.188;2023-06-22T04:49:54;35.10;;;6.75;;
37847;SDS011;23688;33.130;-117.188;2023-06-22T04:52:21;30.55;;;6.30;;
37847;SDS011;23688;33.130;-117.188;2023-06-22T04:54:47;32.53;;;6.65;;
37847;SDS011;23688;33.130;-117.188;2023-06-22T04:57:16;36.55;;;6.45;;
37847;SDS011;23688;33.130;-117.188;2023-06-22T04:59:42;38.63;;;6.43;;
37847;SDS011;23688;33.130;-117.188;2023-06-22T05:02:09;23.75;;;5.72;;
37847;SDS011;23688;33.130;-117.188;2023-06-22T05:04:35;35.10;;;7.40;;
37847;SDS011;23688;33.130;-117.188;2023-06-22T05:07:03;30.20;;;5.97;;
37847;SDS011;23688;33.130;-117.188;2023-06-22T05:09:31;26.85;;;7.30;;
37847;SDS011;23688;33.130;-117.188;2023-06-22T05:11:59;35.03;;;6.20;;
37847;SDS011;23688;33.130;-117.188;2023-06-22T05:14:27;24.90;;;5.95;;
37847;SDS011;23688;33.130;-117.188;2023-06-22T05:16:55;31.73;;;8.13;;
37847;SDS011;23688;33.130;-117.188;2023-06-22T05:21:50;29.17;;;7.00;;
37847;SDS011;23688;33.130;-117.188;2023-06-22T05:24:16;26.52;;;6.70;;
37847;SDS011;23688;33.130;-117.188;2023-06-22T05:26:43;30.92;;;6.90;;
37847;SDS011;23688;33.130;-117.188;2023-06-22T05:29:09;24.20;;;5.35;;
37847;SDS011;23688;33.130;-117.188;2023-06-22T05:31:36;32.50;;;5.45;;
37847;SDS011;23688;33.130;-117.188;2023-06-22T05:34:02;27.60;;;6.55;;
37847;SDS011;23688;33.130;-117.188;2023-06-22T05:36:28;36.60;;;7.32;;
37847;SDS011;23688;33.130;-117.188;2023-06-22T05:38:56;24.23;;;5.47;;
37847;SDS011;23688;33.130;-117.188;2023-06-22T05:41:23;25.17;;;5.60;;
37847;SDS011;23688;33.130;-117.188;2023-06-22T05:43:49;26.25;;;4.93;;
37847;SDS011;23688;33.130;-117.188;2023-06-22T05:46:16;25.52;;;5.40;;
37847;SDS011;23688;33.130;-117.188;2023-06-22T05:48:43;33.78;;;7.75;;
37847;SDS011;23688;33.130;-117.188;2023-06-22T05:51:09;34.15;;;6.32;;
37847;SDS011;23688;33.130;-117.188;2023-06-22T05:53:35;35.75;;;6.82;;
37847;SDS011;23688;33.130;-117.188;2023-06-22T05:56:02;27.85;;;6.63;;
37847;SDS011;23688;33.130;-117.188;2023-06-22T05:58:29;44.53;;;8.23;;
37847;SDS011;23688;33.130;-117.188;2023-06-22T06:00:55;28.38;;;5.63;;
37847;SDS011;23688;33.130;-117.188;2023-06-22T06:03:22;29.02;;;6.22;;
37847;SDS011;23688;33.130;-117.188;2023-06-22T06:05:48;38.42;;;6.18;;
37847;SDS011;23688;33.130;-117.188;2023-06-22T06:08:14;31.88;;;6.70;;
37847;SDS011;23688;33.130;-117.188;2023-06-22T06:10:41;33.47;;;5.82;;
37847;SDS011;23688;33.130;-117.188;2023-06-22T06:13:07;33.38;;;5.80;;
37847;SDS011;23688;33.130;-117.188;2023-06-22T06:15:34;26.85;;;5.18;;
37847;SDS011;23688;33.130;-117.188;2023-06-22T06:18:00;27.80;;;5.75;;
37847;SDS011;23688;33.130;-117.188;2023-06-22T06:20:29;24.88;;;5.50;;
37847;SDS011;23688;33.130;-117.188;2023-06-22T06:22:56;29.08;;;5.80;;
37847;SDS011;23688;33.130;-117.188;2023-06-22T06:25:22;25.23;;;5.68;;
37847;SDS011;23688;33.130;-117.188;2023-06-22T06:27:51;36.13;;;6.78;;
37847;SDS011;23688;33.130;-117.188;2023-06-22T06:30:20;24.73;;;6.50;;
37847;SDS011;23688;33.130;-117.188;2023-06-22T06:32:47;24.30;;;6.88;;
37847;SDS011;23688;33.130;-117.188;2023-06-22T06:35:14;21.27;;;5.25;;
37847;SDS011;23688;33.130;-117.188;2023-06-22T06:37:43;25.58;;;5.60;;
37847;SDS011;23688;33.130;-117.188;2023-06-22T06:42:38;23.85;;;5.95;;
37847;SDS011;23688;33.130;-117.188;2023-06-22T06:45:07;21.80;;;5.47;;
37847;SDS011;23688;33.130;-117.188;2023-06-22T06:47:34;29.20;;;5.45;;
37847;SDS011;23688;33.130;-117.188;2023-06-22T06:50:00;24.20;;;5.57;;
37847;SDS011;23688;33.130;-117.188;2023-06-22T06:52:26;22.80;;;5.00;;
37847;SDS011;23688;33.130;-117.188;2023-06-22T06:54:53;25.05;;;5.18;;
37847;SDS011;23688;33.130;-117.188;2023-06-22T06:57:19;33.33;;;5.40;;
37847;SDS011;23688;33.130;-117.188;2023-06-22T06:59:45;29.52;;;5.75;;
37847;SDS011;23688;33.130;-117.188;2023-06-22T07:02:12;32.33;;;5.43;;
37847;SDS011;23688;33.130;-117.188;2023-06-22T07:04:40;28.05;;;4.68;;
37847;SDS011;23688;33.130;-117.188;2023-06-22T07:07:06;28.52;;;5.85;;
37847;SDS011;23688;33.130;-117.188;2023-06-22T07:09:32;26.77;;;6.22;;
37847;SDS011;23688;33.130;-117.188;2023-06-22T07:11:59;32.85;;;5.68;;
37847;SDS011;23688;33.130;-117.188;2023-06-22T07:14:25;30.15;;;6.63;;
37847;SDS011;23688;33.130;-117.188;2023-06-22T07:16:51;23.92;;;5.88;;
37847;SDS011;23688;33.130;-117.188;2023-06-22T07:19:23;26.95;;;6.60;;
37847;SDS011;23688;33.130;-117.188;2023-06-22T07:21:53;21.95;;;5.47;;
37847;SDS011;23688;33.130;-117.188;2023-06-22T07:24:23;23.33;;;5.70;;
37847;SDS011;23688;33.130;-117.188;2023-06-22T07:26:50;21.60;;;4.53;;
37847;SDS011;23688;33.130;-117.188;2023-06-22T07:29:17;18.92;;;5.30;;
37847;SDS011;23688;33.130;-117.188;2023-06-22T07:31:45;28.75;;;5.88;;
37847;SDS011;23688;33.130;-117.188;2023-06-22T07:34:11;22.63;;;5.18;;
37847;SDS011;23688;33.130;-117.188;2023-06-22T07:36:37;22.52;;;5.03;;
37847;SDS011;23688;33.130;-117.188;2023-06-22T07:39:04;25.50;;;4.82;;
37847;SDS011;23688;33.130;-117.188;2023-06-22T07:41:31;21.30;;;5.28;;
37847;SDS011;23688;33.130;-117.188;2023-06-22T07:43:58;24.52;;;5.13;;
37847;SDS011;23688;33.130;-117.188;2023-06-22T07:46:24;24.20;;;5.18;;
37847;SDS011;23688;33.130;-117.188;2023-06-22T07:48:51;24.92;;;5.97;;
37847;SDS011;23688;33.130;-117.188;2023-06-22T07:51:17;20.65;;;5.18;;
37847;SDS011;23688;33.130;-117.188;2023-06-22T07:53:43;20.13;;;5.38;;
37847;SDS011;23688;33.130;-117.188;2023-06-22T07:56:10;21.27;;;5.65;;
37847;SDS011;23688;33.130;-117.188;2023-06-22T07:58:37;32.92;;;7.25;;
37847;SDS011;23688;33.130;-117.188;2023-06-22T08:01:03;31.85;;;6.07;;
37847;SDS011;23688;33.130;-117.188;2023-06-22T08:03:29;38.55;;;6.47;;
37847;SDS011;23688;33.130;-117.188;2023-06-22T08:05:56;29.65;;;6.07;;
37847;SDS011;23688;33.130;-117.188;2023-06-22T08:08:22;23.70;;;5.45;;
37847;SDS011;23688;33.130;-117.188;2023-06-22T08:10:48;28.80;;;6.63;;
37847;SDS011;23688;33.130;-117.188;2023-06-22T08:13:15;24.38;;;5.47;;
37847;SDS011;23688;33.130;-117.188;2023-06-22T08:15:41;26.17;;;5.68;;
37847;SDS011;23688;33.130;-117.188;2023-06-22T08:18:08;27.67;;;5.43;;
37847;SDS011;23688;33.130;-117.188;2023-06-22T08:20:34;25.48;;;6.07;;
37847;SDS011;23688;33.130;-117.188;2023-06-22T08:23:00;27.13;;;5.55;;
37847;SDS011;23688;33.130;-117.188;2023-06-22T08:25:34;28.33;;;6.45;;
37847;SDS011;23688;33.130;-117.188;2023-06-22T08:28:02;37.30;;;7.90;;
37847;SDS011;23688;33.130;-117.188;2023-06-22T08:30:29;37.47;;;6.68;;
37847;SDS011;23688;33.130;-117.188;2023-06-22T08:32:56;31.10;;;7.88;;
37847;SDS011;23688;33.130;-117.188;2023-06-22T08:35:23;32.00;;;8.52;;
37847;SDS011;23688;33.130;-117.188;2023-06-22T08:37:49;32.15;;;8.48;;
37847;SDS011;23688;33.130;-117.188;2023-06-22T08:40:20;32.42;;;7.50;;
37847;SDS011;23688;33.130;-117.188;2023-06-22T08:42:48;40.58;;;8.70;;
37847;SDS011;23688;33.130;-117.188;2023-06-22T08:45:15;30.48;;;8.07;;
37847;SDS011;23688;33.130;-117.188;2023-06-22T08:47:42;39.90;;;9.23;;
37847;SDS011;23688;33.130;-117.188;2023-06-22T08:50:11;46.60;;;9.88;;
37847;SDS011;23688;33.130;-117.188;2023-06-22T08:52:40;39.97;;;9.73;;
37847;SDS011;23688;33.130;-117.188;2023-06-22T08:55:08;32.10;;;8.43;;
37847;SDS011;23688;33.130;-117.188;2023-06-22T08:57:36;43.67;;;9.63;;
37847;SDS011;23688;33.130;-117.188;2023-06-22T09:00:06;38.45;;;8.25;;
37847;SDS011;23688;33.130;-117.188;2023-06-22T09:02:46;42.45;;;10.77;;
37847;SDS011;23688;33.130;-117.188;2023-06-22T09:05:13;31.95;;;7.57;;
37847;SDS011;23688;33.130;-117.188;2023-06-22T09:07:40;33.13;;;8.88;;
37847;SDS011;23688;33.130;-117.188;2023-06-22T09:10:07;34.38;;;7.82;;
37847;SDS011;23688;33.130;-117.188;2023-06-22T09:12:34;39.92;;;10.30;;
37847;SDS011;23688;33.130;-117.188;2023-06-22T09:15:02;44.28;;;9.55;;
37847;SDS011;23688;33.130;-117.188;2023-06-22T09:17:30;42.38;;;9.65;;
37847;SDS011;23688;33.130;-117.188;2023-06-22T09:19:56;43.33;;;10.90;;
37847;SDS011;23688;33.130;-117.188;2023-06-22T09:22:22;29.52;;;7.65;;
37847;SDS011;23688;33.130;-117.188;2023-06-22T09:24:54;42.45;;;9.10;;
37847;SDS011;23688;33.130;-117.188;2023-06-22T09:27:21;36.63;;;8.80;;
37847;SDS011;23688;33.130;-117.188;2023-06-22T09:29:49;44.03;;;10.45;;
37847;SDS011;23688;33.130;-117.188;2023-06-22T09:32:16;55.90;;;10.18;;
37847;SDS011;23688;33.130;-117.188;2023-06-22T09:34:42;58.65;;;11.00;;
37847;SDS011;23688;33.130;-117.188;2023-06-22T09:37:09;47.13;;;11.63;;
37847;SDS011;23688;33.130;-117.188;2023-06-22T09:39:35;47.63;;;10.88;;
37847;SDS011;23688;33.130;-117.188;2023-06-22T09:42:02;40.40;;;9.68;;
37847;SDS011;23688;33.130;-117.188;2023-06-22T09:44:30;40.08;;;10.15;;
37847;SDS011;23688;33.130;-117.188;2023-06-22T09:46:57;33.42;;;9.57;;
37847;SDS011;23688;33.130;-117.188;2023-06-22T09:49:23;32.55;;;9.70;;
37847;SDS011;23688;33.130;-117.188;2023-06-22T09:51:49;33.47;;;9.38;;
37847;SDS011;23688;33.130;-117.188;2023-06-22T09:54:16;36.78;;;9.60;;
37847;SDS011;23688;33.130;-117.188;2023-06-22T09:56:43;33.25;;;9.05;;
37847;SDS011;23688;33.130;-117.188;2023-06-22T09:59:09;32.80;;;8.88;;
37847;SDS011;23688;33.130;-117.188;2023-06-22T10:01:35;37.60;;;9.05;;
37847;SDS011;23688;33.130;-117.188;2023-06-22T10:04:02;27.05;;;8.07;;
37847;SDS011;23688;33.130;-117.188;2023-06-22T10:06:30;43.40;;;9.73;;
37847;SDS011;23688;33.130;-117.188;2023-06-22T10:08:56;33.83;;;7.75;;
37847;SDS011;23688;33.130;-117.188;2023-06-22T10:11:22;35.05;;;7.60;;
37847;SDS011;23688;33.130;-117.188;2023-06-22T10:13:54;35.70;;;8.38;;
37847;SDS011;23688;33.130;-117.188;2023-06-22T10:16:21;32.85;;;8.23;;
37847;SDS011;23688;33.130;-117.188;2023-06-22T10:18:49;33.00;;;6.63;;
37847;SDS011;23688;33.130;-117.188;2023-06-22T10:21:15;34.10;;;7.50;;
37847;SDS011;23688;33.130;-117.188;2023-06-22T10:23:42;35.65;;;7.30;;
37847;SDS011;23688;33.130;-117.188;2023-06-22T10:26:08;34.63;;;8.30;;
37847;SDS011;23688;33.130;-117.188;2023-06-22T10:28:34;28.75;;;7.85;;
37847;SDS011;23688;33.130;-117.188;2023-06-22T10:31:01;29.75;;;7.32;;
37847;SDS011;23688;33.130;-117.188;2023-06-22T10:33:27;29.13;;;7.78;;
37847;SDS011;23688;33.130;-117.188;2023-06-22T10:35:53;26.08;;;7.00;;
37847;SDS011;23688;33.130;-117.188;2023-06-22T10:38:20;34.17;;;7.95;;
37847;SDS011;23688;33.130;-117.188;2023-06-22T10:40:46;33.30;;;8.02;;
37847;SDS011;23688;33.130;-117.188;2023-06-22T10:43:13;28.92;;;8.48;;
37847;SDS011;23688;33.130;-117.188;2023-06-22T10:45:39;24.30;;;6.90;;
37847;SDS011;23688;33.130;-117.188;2023-06-22T10:48:05;32.75;;;7.18;;
37847;SDS011;23688;33.130;-117.188;2023-06-22T10:50:31;29.58;;;9.88;;
37847;SDS011;23688;33.130;-117.188;2023-06-22T10:52:58;37.22;;;8.68;;
37847;SDS011;23688;33.130;-117.188;2023-06-22T10:55:24;28.23;;;7.80;;
37847;SDS011;23688;33.130;-117.188;2023-06-22T10:57:50;31.85;;;8.32;;
37847;SDS011;23688;33.130;-117.188;2023-06-22T11:00:17;40.58;;;10.05;;
37847;SDS011;23688;33.130;-117.188;2023-06-22T11:02:44;38.20;;;9.75;;
37847;SDS011;23688;33.130;-117.188;2023-06-22T11:05:10;41.78;;;9.50;;
37847;SDS011;23688;33.130;-117.188;2023-06-22T11:07:37;38.75;;;8.93;;
37847;SDS011;23688;33.130;-117.188;2023-06-22T11:10:07;41.58;;;9.02;;
37847;SDS011;23688;33.130;-117.188;2023-06-22T11:12:33;28.02;;;8.55;;
37847;SDS011;23688;33.130;-117.188;2023-06-22T11:15:00;38.20;;;8.95;;
37847;SDS011;23688;33.130;-117.188;2023-06-22T11:17:27;39.30;;;10.57;;
37847;SDS011;23688;33.130;-117.188;2023-06-22T11:19:53;36.90;;;9.45;;
37847;SDS011;23688;33.130;-117.188;2023-06-22T11:22:19;28.33;;;8.35;;
37847;SDS011;23688;33.130;-117.188;2023-06-22T11:24:46;26.00;;;7.38;;
37847;SDS011;23688;33.130;-117.188;2023-06-22T11:27:12;30.05;;;7.55;;
37847;SDS011;23688;33.130;-117.188;2023-06-22T11:29:39;26.15;;;7.50;;
37847;SDS011;23688;33.130;-117.188;2023-06-22T11:32:06;21.85;;;7.43;;
37847;SDS011;23688;33.130;-117.188;2023-06-22T11:34:33;30.30;;;8.55;;
37847;SDS011;23688;33.130;-117.188;2023-06-22T11:36:59;25.52;;;8.32;;
37847;SDS011;23688;33.130;-117.188;2023-06-22T11:39:26;20.58;;;7.72;;
37847;SDS011;23688;33.130;-117.188;2023-06-22T11:41:52;25.05;;;7.53;;
37847;SDS011;23688;33.130;-117.188;2023-06-22T11:44:19;23.67;;;7.90;;
37847;SDS011;23688;33.130;-117.188;2023-06-22T11:46:45;22.67;;;8.05;;
37847;SDS011;23688;33.130;-117.188;2023-06-22T11:49:11;23.85;;;8.05;;
37847;SDS011;23688;33.130;-117.188;2023-06-22T11:51:37;24.77;;;8.23;;
37847;SDS011;23688;33.130;-117.188;2023-06-22T11:54:04;17.13;;;6.63;;
37847;SDS011;23688;33.130;-117.188;2023-06-22T11:56:30;24.38;;;7.68;;
37847;SDS011;23688;33.130;-117.188;2023-06-22T11:58:57;19.52;;;7.13;;
37847;SDS011;23688;33.130;-117.188;2023-06-22T12:01:23;20.52;;;7.40;;
37847;SDS011;23688;33.130;-117.188;2023-06-22T12:03:49;25.42;;;7.20;;
37847;SDS011;23688;33.130;-117.188;2023-06-22T12:06:16;15.93;;;6.65;;
37847;SDS011;23688;33.130;-117.188;2023-06-22T12:08:43;19.95;;;6.90;;
37847;SDS011;23688;33.130;-117.188;2023-06-22T12:11:09;22.30;;;6.78;;
37847;SDS011;23688;33.130;-117.188;2023-06-22T12:13:35;23.75;;;7.30;;
37847;SDS011;23688;33.130;-117.188;2023-06-22T12:16:02;26.88;;;7.35;;
37847;SDS011;23688;33.130;-117.188;2023-06-22T12:18:28;21.13;;;6.70;;
37847;SDS011;23688;33.130;-117.188;2023-06-22T12:20:54;23.15;;;6.45;;
37847;SDS011;23688;33.130;-117.188;2023-06-22T12:23:20;20.52;;;6.65;;
37847;SDS011;23688;33.130;-117.188;2023-06-22T12:25:47;22.42;;;6.93;;
37847;SDS011;23688;33.130;-117.188;2023-06-22T12:28:13;19.35;;;5.82;;
37847;SDS011;23688;33.130;-117.188;2023-06-22T12:30:39;22.00;;;7.82;;
37847;SDS011;23688;33.130;-117.188;2023-06-22T12:33:06;21.67;;;8.25;;
37847;SDS011;23688;33.130;-117.188;2023-06-22T12:35:32;26.30;;;7.75;;
37847;SDS011;23688;33.130;-117.188;2023-06-22T12:37:58;19.08;;;7.78;;
37847;SDS011;23688;33.130;-117.188;2023-06-22T12:40:24;27.90;;;7.70;;
37847;SDS011;23688;33.130;-117.188;2023-06-22T12:42:51;26.65;;;7.32;;
37847;SDS011;23688;33.130;-117.188;2023-06-22T12:45:17;26.23;;;7.13;;
37847;SDS011;23688;33.130;-117.188;2023-06-22T12:47:45;26.02;;;6.70;;
37847;SDS011;23688;33.130;-117.188;2023-06-22T12:50:11;27.05;;;7.68;;
37847;SDS011;23688;33.130;-117.188;2023-06-22T12:52:39;26.65;;;7.28;;
37847;SDS011;23688;33.130;-117.188;2023-06-22T12:55:06;31.35;;;7.25;;
37847;SDS011;23688;33.130;-117.188;2023-06-22T12:57:33;24.77;;;7.60;;
37847;SDS011;23688;33.130;-117.188;2023-06-22T12:59:59;28.38;;;6.25;;
37847;SDS011;23688;33.130;-117.188;2023-06-22T13:02:26;23.25;;;6.80;;
37847;SDS011;23688;33.130;-117.188;2023-06-22T13:04:52;23.63;;;6.00;;
37847;SDS011;23688;33.130;-117.188;2023-06-22T13:07:20;24.95;;;6.28;;
37847;SDS011;23688;33.130;-117.188;2023-06-22T13:09:46;23.85;;;5.63;;
37847;SDS011;23688;33.130;-117.188;2023-06-22T13:12:16;22.48;;;6.53;;
37847;SDS011;23688;33.130;-117.188;2023-06-22T13:14:43;27.52;;;5.90;;
37847;SDS011;23688;33.130;-117.188;2023-06-22T13:17:11;35.20;;;8.25;;
37847;SDS011;23688;33.130;-117.188;2023-06-22T13:19:41;26.05;;;5.43;;
37847;SDS011;23688;33.130;-117.188;2023-06-22T13:22:40;21.75;;;6.10;;
37847;SDS011;23688;33.130;-117.188;2023-06-22T13:25:05;20.40;;;6.18;;
37847;SDS011;23688;33.130;-117.188;2023-06-22T13:27:32;26.33;;;6.00;;
37847;SDS011;23688;33.130;-117.188;2023-06-22T13:29:58;20.70;;;6.00;;
37847;SDS011;23688;33.130;-117.188;2023-06-22T13:32:25;29.35;;;7.03;;
37847;SDS011;23688;33.130;-117.188;2023-06-22T13:34:54;23.73;;;5.70;;
37847;SDS011;23688;33.130;-117.188;2023-06-22T13:37:20;19.25;;;5.53;;
37847;SDS011;23688;33.130;-117.188;2023-06-22T13:39:47;28.38;;;6.13;;
37847;SDS011;23688;33.130;-117.188;2023-06-22T13:42:13;25.67;;;4.97;;
37847;SDS011;23688;33.130;-117.188;2023-06-22T13:44:39;26.38;;;5.78;;
37847;SDS011;23688;33.130;-117.188;2023-06-22T13:47:06;25.65;;;5.65;;
37847;SDS011;23688;33.130;-117.188;2023-06-22T13:49:32;25.58;;;6.53;;
37847;SDS011;23688;33.130;-117.188;2023-06-22T13:51:59;17.33;;;5.38;;
37847;SDS011;23688;33.130;-117.188;2023-06-22T13:54:25;31.85;;;6.22;;
37847;SDS011;23688;33.130;-117.188;2023-06-22T13:56:51;22.65;;;5.95;;
37847;SDS011;23688;33.130;-117.188;2023-06-22T13:59:18;33.13;;;6.70;;
37847;SDS011;23688;33.130;-117.188;2023-06-22T14:01:49;23.52;;;6.00;;
37847;SDS011;23688;33.130;-117.188;2023-06-22T14:04:16;27.35;;;7.85;;
37847;SDS011;23688;33.130;-117.188;2023-06-22T14:06:42;28.08;;;4.75;;
37847;SDS011;23688;33.130;-117.188;2023-06-22T14:09:08;30.67;;;5.40;;
37847;SDS011;23688;33.130;-117.188;2023-06-22T14:11:35;32.28;;;6.13;;